sensor_id;sensor_type;location;lat;lon;timestamp;P1;durP1;ratioP1;P2;durP2;ratioP2
27257;SDS011;62045;49.986;8.672;2023-02-21T00:04:31;1.98;;;0.85;;
27257;SDS011;62045;49.986;8.672;2023-02-21T00:09:33;3.20;;;0.90;;
27257;SDS011;62045;49.986;8.672;2023-02-21T00:14:35;2.63;;;0.90;;
27257;SDS011;62045;49.986;8.672;2023-02-21T00:19:36;2.25;;;0.80;;
27257;SDS011;62045;49.986;8.672;2023-02-21T00:24:38;2.80;;;0.90;;
27257;SDS011;62045;49.986;8.672;2023-02-21T00:29:38;1.60;;;0.70;;
27257;SDS011;62045;49.986;8.672;2023-02-21T00:34:39;2.55;;;1.10;;
27257;SDS011;62045;49.986;8.672;2023-02-21T00:39:41;2.33;;;0.77;;
27257;SDS011;62045;49.986;8.672;2023-02-21T00:44:42;1.88;;;0.90;;
27257;SDS011;62045;49.986;8.672;2023-02-21T00:49:43;2.00;;;0.85;;
27257;SDS011;62045;49.986;8.672;2023-02-21T00:54:45;2.00;;;0.85;;
27257;SDS011;62045;49.986;8.672;2023-02-21T00:59:45;1.75;;;0.70;;
27257;SDS011;62045;49.986;8.672;2023-02-21T01:04:46;1.75;;;0.85;;
27257;SDS011;62045;49.986;8.672;2023-02-21T01:09:49;2.03;;;0.63;;
27257;SDS011;62045;49.986;8.672;2023-02-21T01:14:49;2.45;;;0.80;;
27257;SDS011;62045;49.986;8.672;2023-02-21T01:19:50;2.13;;;0.70;;
27257;SDS011;62045;49.986;8.672;2023-02-21T01:24:52;2.28;;;0.90;;
27257;SDS011;62045;49.986;8.672;2023-02-21T01:29:53;1.85;;;0.77;;
27257;SDS011;62045;49.986;8.672;2023-02-21T01:34:53;1.85;;;0.70;;
27257;SDS011;62045;49.986;8.672;2023-02-21T01:39:55;1.85;;;0.70;;
27257;SDS011;62045;49.986;8.672;2023-02-21T01:45:19;1.83;;;0.70;;
27257;SDS011;62045;49.986;8.672;2023-02-21T01:50:38;1.98;;;0.63;;
27257;SDS011;62045;49.986;8.672;2023-02-21T01:55:40;2.03;;;0.88;;
27257;SDS011;62045;49.986;8.672;2023-02-21T02:00:43;1.75;;;0.68;;
27257;SDS011;62045;49.986;8.672;2023-02-21T02:05:45;1.35;;;0.57;;
27257;SDS011;62045;49.986;8.672;2023-02-21T02:10:51;2.65;;;0.80;;
27257;SDS011;62045;49.986;8.672;2023-02-21T02:16:01;1.73;;;0.77;;
27257;SDS011;62045;49.986;8.672;2023-02-21T02:26:41;2.03;;;0.60;;
27257;SDS011;62045;49.986;8.672;2023-02-21T02:37:11;0.85;;;0.50;;
27257;SDS011;62045;49.986;8.672;2023-02-21T02:42:21;1.60;;;0.68;;
27257;SDS011;62045;49.986;8.672;2023-02-21T02:47:30;2.00;;;0.80;;
27257;SDS011;62045;49.986;8.672;2023-02-21T02:52:38;2.10;;;0.80;;
27257;SDS011;62045;49.986;8.672;2023-02-21T02:57:50;1.75;;;0.80;;
27257;SDS011;62045;49.986;8.672;2023-02-21T03:03:07;1.73;;;0.70;;
27257;SDS011;62045;49.986;8.672;2023-02-21T03:08:23;2.40;;;0.77;;
27257;SDS011;62045;49.986;8.672;2023-02-21T03:13:33;2.60;;;0.65;;
27257;SDS011;62045;49.986;8.672;2023-02-21T03:18:41;1.52;;;0.70;;
27257;SDS011;62045;49.986;8.672;2023-02-21T03:23:49;1.40;;;0.70;;
27257;SDS011;62045;49.986;8.672;2023-02-21T03:28:52;2.67;;;0.70;;
27257;SDS011;62045;49.986;8.672;2023-02-21T03:33:54;0.85;;;0.43;;
27257;SDS011;62045;49.986;8.672;2023-02-21T03:38:56;3.35;;;0.60;;
27257;SDS011;62045;49.986;8.672;2023-02-21T03:43:58;2.13;;;0.57;;
27257;SDS011;62045;49.986;8.672;2023-02-21T03:48:59;1.70;;;0.80;;
27257;SDS011;62045;49.986;8.672;2023-02-21T03:54:04;1.10;;;0.50;;
27257;SDS011;62045;49.986;8.672;2023-02-21T03:59:12;1.75;;;0.70;;
27257;SDS011;62045;49.986;8.672;2023-02-21T04:04:12;1.88;;;0.50;;
27257;SDS011;62045;49.986;8.672;2023-02-21T04:09:15;1.92;;;0.77;;
27257;SDS011;62045;49.986;8.672;2023-02-21T04:14:16;1.75;;;0.65;;
27257;SDS011;62045;49.986;8.672;2023-02-21T04:19:17;1.83;;;0.60;;
27257;SDS011;62045;49.986;8.672;2023-02-21T04:24:20;1.10;;;0.55;;
27257;SDS011;62045;49.986;8.672;2023-02-21T04:29:21;1.50;;;0.60;;
27257;SDS011;62045;49.986;8.672;2023-02-21T04:34:22;1.55;;;0.50;;
27257;SDS011;62045;49.986;8.672;2023-02-21T04:39:24;1.10;;;0.50;;
27257;SDS011;62045;49.986;8.672;2023-02-21T04:44:25;1.48;;;0.70;;
27257;SDS011;62045;49.986;8.672;2023-02-21T04:49:25;2.40;;;1.00;;
27257;SDS011;62045;49.986;8.672;2023-02-21T04:54:28;1.08;;;0.50;;
27257;SDS011;62045;49.986;8.672;2023-02-21T04:59:28;1.58;;;0.50;;
27257;SDS011;62045;49.986;8.672;2023-02-21T05:04:29;1.60;;;0.73;;
27257;SDS011;62045;49.986;8.672;2023-02-21T05:09:31;1.70;;;0.65;;
27257;SDS011;62045;49.986;8.672;2023-02-21T05:14:32;1.58;;;0.82;;
27257;SDS011;62045;49.986;8.672;2023-02-21T05:19:32;2.08;;;0.73;;
27257;SDS011;62045;49.986;8.672;2023-02-21T05:24:39;1.50;;;0.50;;
27257;SDS011;62045;49.986;8.672;2023-02-21T05:29:40;1.58;;;0.50;;
27257;SDS011;62045;49.986;8.672;2023-02-21T05:34:41;2.63;;;0.70;;
27257;SDS011;62045;49.986;8.672;2023-02-21T05:39:43;1.83;;;0.70;;
27257;SDS011;62045;49.986;8.672;2023-02-21T05:44:44;1.15;;;0.50;;
27257;SDS011;62045;49.986;8.672;2023-02-21T05:49:45;1.65;;;0.60;;
27257;SDS011;62045;49.986;8.672;2023-02-21T05:54:47;2.00;;;0.77;;
27257;SDS011;62045;49.986;8.672;2023-02-21T05:59:48;1.48;;;0.70;;
27257;SDS011;62045;49.986;8.672;2023-02-21T06:04:49;1.67;;;0.55;;
27257;SDS011;62045;49.986;8.672;2023-02-21T06:09:51;1.25;;;0.63;;
27257;SDS011;62045;49.986;8.672;2023-02-21T06:14:51;1.25;;;0.50;;
27257;SDS011;62045;49.986;8.672;2023-02-21T06:19:54;1.70;;;0.70;;
27257;SDS011;62045;49.986;8.672;2023-02-21T06:24:56;1.20;;;0.65;;
27257;SDS011;62045;49.986;8.672;2023-02-21T06:29:57;0.98;;;0.50;;
27257;SDS011;62045;49.986;8.672;2023-02-21T06:34:58;1.33;;;0.60;;
27257;SDS011;62045;49.986;8.672;2023-02-21T06:40:00;1.58;;;0.60;;
27257;SDS011;62045;49.986;8.672;2023-02-21T06:45:01;1.10;;;0.57;;
27257;SDS011;62045;49.986;8.672;2023-02-21T06:50:02;1.52;;;0.60;;
27257;SDS011;62045;49.986;8.672;2023-02-21T06:55:05;1.58;;;0.55;;
27257;SDS011;62045;49.986;8.672;2023-02-21T07:00:07;2.03;;;0.80;;
27257;SDS011;62045;49.986;8.672;2023-02-21T07:05:09;1.15;;;0.52;;
27257;SDS011;62045;49.986;8.672;2023-02-21T07:10:11;1.52;;;0.40;;
27257;SDS011;62045;49.986;8.672;2023-02-21T07:15:12;1.23;;;0.60;;
27257;SDS011;62045;49.986;8.672;2023-02-21T07:20:13;1.25;;;0.45;;
27257;SDS011;62045;49.986;8.672;2023-02-21T07:25:16;1.02;;;0.50;;
27257;SDS011;62045;49.986;8.672;2023-02-21T07:30:19;1.10;;;0.60;;
27257;SDS011;62045;49.986;8.672;2023-02-21T07:35:20;1.48;;;0.65;;
27257;SDS011;62045;49.986;8.672;2023-02-21T07:40:22;1.95;;;0.65;;
27257;SDS011;62045;49.986;8.672;2023-02-21T07:45:23;1.27;;;0.55;;
27257;SDS011;62045;49.986;8.672;2023-02-21T07:50:23;2.67;;;0.80;;
27257;SDS011;62045;49.986;8.672;2023-02-21T07:55:25;2.38;;;1.10;;
27257;SDS011;62045;49.986;8.672;2023-02-21T08:00:26;2.95;;;1.25;;
27257;SDS011;62045;49.986;8.672;2023-02-21T08:05:27;3.42;;;1.60;;
27257;SDS011;62045;49.986;8.672;2023-02-21T08:10:29;4.07;;;1.88;;
27257;SDS011;62045;49.986;8.672;2023-02-21T08:15:29;3.78;;;2.28;;
27257;SDS011;62045;49.986;8.672;2023-02-21T08:20:30;5.28;;;2.33;;
27257;SDS011;62045;49.986;8.672;2023-02-21T08:25:32;5.70;;;2.88;;
27257;SDS011;62045;49.986;8.672;2023-02-21T08:30:33;6.32;;;3.25;;
27257;SDS011;62045;49.986;8.672;2023-02-21T08:35:34;5.32;;;3.00;;
27257;SDS011;62045;49.986;8.672;2023-02-21T08:40:36;6.10;;;3.35;;
27257;SDS011;62045;49.986;8.672;2023-02-21T08:45:36;7.15;;;3.17;;
27257;SDS011;62045;49.986;8.672;2023-02-21T08:50:37;5.70;;;2.75;;
27257;SDS011;62045;49.986;8.672;2023-02-21T08:55:39;5.22;;;2.60;;
27257;SDS011;62045;49.986;8.672;2023-02-21T09:00:40;6.93;;;2.88;;
27257;SDS011;62045;49.986;8.672;2023-02-21T09:05:40;8.63;;;2.97;;
27257;SDS011;62045;49.986;8.672;2023-02-21T09:10:43;6.10;;;2.95;;
27257;SDS011;62045;49.986;8.672;2023-02-21T09:15:43;5.80;;;2.80;;
27257;SDS011;62045;49.986;8.672;2023-02-21T09:20:44;5.50;;;3.05;;
27257;SDS011;62045;49.986;8.672;2023-02-21T09:25:46;14.63;;;5.47;;
27257;SDS011;62045;49.986;8.672;2023-02-21T09:30:48;56.50;;;18.30;;
27257;SDS011;62045;49.986;8.672;2023-02-21T09:35:49;23.05;;;7.70;;
27257;SDS011;62045;49.986;8.672;2023-02-21T09:40:52;21.40;;;7.03;;
27257;SDS011;62045;49.986;8.672;2023-02-21T09:45:59;17.80;;;6.75;;
27257;SDS011;62045;49.986;8.672;2023-02-21T09:51:03;26.92;;;6.63;;
27257;SDS011;62045;49.986;8.672;2023-02-21T09:56:09;16.17;;;6.50;;
27257;SDS011;62045;49.986;8.672;2023-02-21T10:01:16;10.57;;;4.63;;
27257;SDS011;62045;49.986;8.672;2023-02-21T10:06:27;14.20;;;4.63;;
27257;SDS011;62045;49.986;8.672;2023-02-21T10:16:46;9.90;;;3.90;;
27257;SDS011;62045;49.986;8.672;2023-02-21T10:21:52;8.00;;;3.75;;
27257;SDS011;62045;49.986;8.672;2023-02-21T10:26:58;10.77;;;4.82;;
27257;SDS011;62045;49.986;8.672;2023-02-21T10:32:01;11.60;;;4.35;;
27257;SDS011;62045;49.986;8.672;2023-02-21T10:37:03;10.52;;;3.78;;
27257;SDS011;62045;49.986;8.672;2023-02-21T10:42:17;9.90;;;4.63;;
27257;SDS011;62045;49.986;8.672;2023-02-21T10:47:27;10.10;;;4.25;;
27257;SDS011;62045;49.986;8.672;2023-02-21T10:52:35;9.18;;;4.13;;
27257;SDS011;62045;49.986;8.672;2023-02-21T10:57:40;11.23;;;3.95;;
27257;SDS011;62045;49.986;8.672;2023-02-21T11:02:43;8.18;;;3.25;;
27257;SDS011;62045;49.986;8.672;2023-02-21T11:07:54;8.63;;;3.22;;
27257;SDS011;62045;49.986;8.672;2023-02-21T11:18:05;7.72;;;3.45;;
27257;SDS011;62045;49.986;8.672;2023-02-21T11:23:16;7.72;;;3.40;;
27257;SDS011;62045;49.986;8.672;2023-02-21T11:28:20;11.10;;;3.70;;
27257;SDS011;62045;49.986;8.672;2023-02-21T11:33:22;6.78;;;3.28;;
27257;SDS011;62045;49.986;8.672;2023-02-21T11:38:30;6.22;;;2.70;;
27257;SDS011;62045;49.986;8.672;2023-02-21T11:43:34;16.30;;;5.32;;
27257;SDS011;62045;49.986;8.672;2023-02-21T11:48:37;30.80;;;6.40;;
27257;SDS011;62045;49.986;8.672;2023-02-21T11:53:46;18.15;;;4.43;;
27257;SDS011;62045;49.986;8.672;2023-02-21T11:58:50;16.30;;;4.22;;
27257;SDS011;62045;49.986;8.672;2023-02-21T12:04:03;11.55;;;4.63;;
27257;SDS011;62045;49.986;8.672;2023-02-21T12:09:24;14.43;;;4.25;;
27257;SDS011;62045;49.986;8.672;2023-02-21T12:14:53;10.25;;;3.53;;
27257;SDS011;62045;49.986;8.672;2023-02-21T12:20:07;10.65;;;3.65;;
27257;SDS011;62045;49.986;8.672;2023-02-21T12:25:22;12.77;;;3.78;;
27257;SDS011;62045;49.986;8.672;2023-02-21T12:30:38;12.55;;;3.63;;
27257;SDS011;62045;49.986;8.672;2023-02-21T12:41:12;10.77;;;4.50;;
27257;SDS011;62045;49.986;8.672;2023-02-21T12:46:30;8.15;;;3.35;;
27257;SDS011;62045;49.986;8.672;2023-02-21T12:51:36;14.98;;;5.60;;
27257;SDS011;62045;49.986;8.672;2023-02-21T12:56:41;15.30;;;4.70;;
27257;SDS011;62045;49.986;8.672;2023-02-21T13:01:47;13.00;;;4.95;;
27257;SDS011;62045;49.986;8.672;2023-02-21T13:06:52;16.23;;;5.28;;
27257;SDS011;62045;49.986;8.672;2023-02-21T13:11:59;13.63;;;4.55;;
27257;SDS011;62045;49.986;8.672;2023-02-21T13:17:09;18.75;;;4.82;;
27257;SDS011;62045;49.986;8.672;2023-02-21T13:28:09;10.57;;;4.07;;
27257;SDS011;62045;49.986;8.672;2023-02-21T13:33:23;12.32;;;4.28;;
27257;SDS011;62045;49.986;8.672;2023-02-21T13:38:27;11.85;;;4.35;;
27257;SDS011;62045;49.986;8.672;2023-02-21T13:43:30;11.02;;;3.72;;
27257;SDS011;62045;49.986;8.672;2023-02-21T13:48:34;14.30;;;4.18;;
27257;SDS011;62045;49.986;8.672;2023-02-21T13:54:02;12.93;;;4.50;;
27257;SDS011;62045;49.986;8.672;2023-02-21T14:10:04;10.73;;;3.65;;
27257;SDS011;62045;49.986;8.672;2023-02-21T14:15:21;8.95;;;3.35;;
27257;SDS011;62045;49.986;8.672;2023-02-21T14:20:23;11.65;;;4.43;;
27257;SDS011;62045;49.986;8.672;2023-02-21T14:25:25;7.55;;;3.33;;
27257;SDS011;62045;49.986;8.672;2023-02-21T14:30:30;7.95;;;3.60;;
27257;SDS011;62045;49.986;8.672;2023-02-21T14:35:34;9.77;;;3.95;;
27257;SDS011;62045;49.986;8.672;2023-02-21T14:40:40;8.05;;;3.45;;
27257;SDS011;62045;49.986;8.672;2023-02-21T14:45:53;9.18;;;3.83;;
27257;SDS011;62045;49.986;8.672;2023-02-21T14:51:09;9.23;;;3.70;;
27257;SDS011;62045;49.986;8.672;2023-02-21T14:56:59;8.77;;;3.33;;
27257;SDS011;62045;49.986;8.672;2023-02-21T15:02:22;7.45;;;3.10;;
27257;SDS011;62045;49.986;8.672;2023-02-21T15:07:32;7.15;;;3.15;;
27257;SDS011;62045;49.986;8.672;2023-02-21T15:12:41;10.75;;;3.60;;
27257;SDS011;62045;49.986;8.672;2023-02-21T15:17:44;7.57;;;3.22;;
27257;SDS011;62045;49.986;8.672;2023-02-21T15:22:55;7.30;;;3.10;;
27257;SDS011;62045;49.986;8.672;2023-02-21T15:27:59;8.65;;;3.63;;
27257;SDS011;62045;49.986;8.672;2023-02-21T15:33:04;7.55;;;3.63;;
27257;SDS011;62045;49.986;8.672;2023-02-21T15:38:13;7.95;;;3.85;;
27257;SDS011;62045;49.986;8.672;2023-02-21T15:48:41;7.20;;;3.25;;
27257;SDS011;62045;49.986;8.672;2023-02-21T15:53:44;6.22;;;2.70;;
27257;SDS011;62045;49.986;8.672;2023-02-21T15:59:24;8.10;;;3.08;;
27257;SDS011;62045;49.986;8.672;2023-02-21T16:04:33;8.70;;;2.92;;
27257;SDS011;62045;49.986;8.672;2023-02-21T16:09:43;7.68;;;3.00;;
27257;SDS011;62045;49.986;8.672;2023-02-21T16:14:46;6.15;;;2.70;;
27257;SDS011;62045;49.986;8.672;2023-02-21T16:19:54;6.38;;;2.85;;
27257;SDS011;62045;49.986;8.672;2023-02-21T16:25:11;6.57;;;2.58;;
27257;SDS011;62045;49.986;8.672;2023-02-21T16:30:16;6.28;;;2.70;;
27257;SDS011;62045;49.986;8.672;2023-02-21T16:35:19;7.63;;;3.17;;
27257;SDS011;62045;49.986;8.672;2023-02-21T16:40:24;5.63;;;2.50;;
27257;SDS011;62045;49.986;8.672;2023-02-21T16:45:26;5.82;;;2.60;;
27257;SDS011;62045;49.986;8.672;2023-02-21T16:50:29;5.95;;;2.42;;
27257;SDS011;62045;49.986;8.672;2023-02-21T16:55:34;9.00;;;2.85;;
27257;SDS011;62045;49.986;8.672;2023-02-21T17:00:34;5.43;;;2.63;;
27257;SDS011;62045;49.986;8.672;2023-02-21T17:05:35;5.00;;;2.47;;
27257;SDS011;62045;49.986;8.672;2023-02-21T17:10:37;4.80;;;2.22;;
27257;SDS011;62045;49.986;8.672;2023-02-21T17:15:38;7.25;;;2.70;;
27257;SDS011;62045;49.986;8.672;2023-02-21T17:20:38;8.35;;;2.58;;
27257;SDS011;62045;49.986;8.672;2023-02-21T17:25:40;6.20;;;2.70;;
27257;SDS011;62045;49.986;8.672;2023-02-21T17:30:41;9.40;;;2.75;;
27257;SDS011;62045;49.986;8.672;2023-02-21T17:35:42;556.95;;;257.20;;
27257;SDS011;62045;49.986;8.672;2023-02-21T17:40:44;366.23;;;170.63;;
27257;SDS011;62045;49.986;8.672;2023-02-21T17:45:45;290.25;;;130.55;;
27257;SDS011;62045;49.986;8.672;2023-02-21T17:50:46;239.35;;;112.63;;
27257;SDS011;62045;49.986;8.672;2023-02-21T17:55:48;169.75;;;86.25;;
27257;SDS011;62045;49.986;8.672;2023-02-21T18:00:49;177.45;;;86.00;;
27257;SDS011;62045;49.986;8.672;2023-02-21T18:05:50;156.77;;;82.82;;
27257;SDS011;62045;49.986;8.672;2023-02-21T18:10:52;151.15;;;79.45;;
27257;SDS011;62045;49.986;8.672;2023-02-21T18:15:53;148.52;;;78.43;;
27257;SDS011;62045;49.986;8.672;2023-02-21T18:20:53;138.85;;;75.63;;
27257;SDS011;62045;49.986;8.672;2023-02-21T18:25:56;133.93;;;74.72;;
27257;SDS011;62045;49.986;8.672;2023-02-21T18:30:57;141.70;;;73.22;;
27257;SDS011;62045;49.986;8.672;2023-02-21T18:35:58;129.95;;;70.95;;
27257;SDS011;62045;49.986;8.672;2023-02-21T18:41:01;103.85;;;56.42;;
27257;SDS011;62045;49.986;8.672;2023-02-21T18:46:01;79.68;;;49.65;;
27257;SDS011;62045;49.986;8.672;2023-02-21T18:51:02;88.20;;;50.08;;
27257;SDS011;62045;49.986;8.672;2023-02-21T18:56:08;89.97;;;50.47;;
27257;SDS011;62045;49.986;8.672;2023-02-21T19:01:12;83.53;;;48.33;;
27257;SDS011;62045;49.986;8.672;2023-02-21T19:06:14;82.50;;;48.55;;
27257;SDS011;62045;49.986;8.672;2023-02-21T19:11:17;76.93;;;47.93;;
27257;SDS011;62045;49.986;8.672;2023-02-21T19:16:18;79.28;;;46.55;;
27257;SDS011;62045;49.986;8.672;2023-02-21T19:21:19;75.57;;;45.35;;
27257;SDS011;62045;49.986;8.672;2023-02-21T19:26:21;76.05;;;39.75;;
27257;SDS011;62045;49.986;8.672;2023-02-21T19:31:22;1412.32;;;644.17;;
27257;SDS011;62045;49.986;8.672;2023-02-21T19:36:23;1255.35;;;581.30;;
27257;SDS011;62045;49.986;8.672;2023-02-21T19:41:25;1188.10;;;553.30;;
27257;SDS011;62045;49.986;8.672;2023-02-21T19:46:26;1121.78;;;522.55;;
27257;SDS011;62045;49.986;8.672;2023-02-21T19:51:28;1083.13;;;499.80;;
27257;SDS011;62045;49.986;8.672;2023-02-21T19:56:32;1000.17;;;463.03;;
27257;SDS011;62045;49.986;8.672;2023-02-21T20:01:33;939.75;;;438.13;;
27257;SDS011;62045;49.986;8.672;2023-02-21T20:06:33;907.00;;;423.35;;
27257;SDS011;62045;49.986;8.672;2023-02-21T20:11:36;877.08;;;413.48;;
27257;SDS011;62045;49.986;8.672;2023-02-21T20:16:37;864.80;;;404.75;;
27257;SDS011;62045;49.986;8.672;2023-02-21T20:21:38;840.30;;;393.63;;
27257;SDS011;62045;49.986;8.672;2023-02-21T20:26:41;805.42;;;382.67;;
27257;SDS011;62045;49.986;8.672;2023-02-21T20:31:41;785.33;;;369.48;;
27257;SDS011;62045;49.986;8.672;2023-02-21T20:36:42;755.70;;;359.42;;
27257;SDS011;62045;49.986;8.672;2023-02-21T20:41:45;723.08;;;343.67;;
27257;SDS011;62045;49.986;8.672;2023-02-21T20:46:46;703.90;;;330.73;;
27257;SDS011;62045;49.986;8.672;2023-02-21T20:51:47;682.13;;;326.02;;
27257;SDS011;62045;49.986;8.672;2023-02-21T20:56:49;688.28;;;325.15;;
27257;SDS011;62045;49.986;8.672;2023-02-21T21:06:53;647.17;;;307.88;;
27257;SDS011;62045;49.986;8.672;2023-02-21T21:11:56;644.70;;;301.77;;
27257;SDS011;62045;49.986;8.672;2023-02-21T21:16:57;623.63;;;289.02;;
27257;SDS011;62045;49.986;8.672;2023-02-21T21:21:59;622.70;;;287.13;;
27257;SDS011;62045;49.986;8.672;2023-02-21T21:27:02;584.40;;;268.75;;
27257;SDS011;62045;49.986;8.672;2023-02-21T21:32:03;609.95;;;276.73;;
27257;SDS011;62045;49.986;8.672;2023-02-21T21:37:04;582.80;;;270.60;;
27257;SDS011;62045;49.986;8.672;2023-02-21T21:42:06;557.80;;;258.25;;
27257;SDS011;62045;49.986;8.672;2023-02-21T21:47:07;554.03;;;253.43;;
27257;SDS011;62045;49.986;8.672;2023-02-21T21:52:08;529.90;;;247.38;;
27257;SDS011;62045;49.986;8.672;2023-02-21T21:57:11;524.00;;;240.63;;
27257;SDS011;62045;49.986;8.672;2023-02-21T22:02:12;513.33;;;235.02;;
27257;SDS011;62045;49.986;8.672;2023-02-21T22:07:13;489.42;;;222.98;;
27257;SDS011;62045;49.986;8.672;2023-02-21T22:12:16;486.55;;;229.77;;
27257;SDS011;62045;49.986;8.672;2023-02-21T22:17:17;482.70;;;224.17;;
27257;SDS011;62045;49.986;8.672;2023-02-21T22:22:18;447.60;;;216.38;;
27257;SDS011;62045;49.986;8.672;2023-02-21T22:27:20;450.30;;;210.88;;
27257;SDS011;62045;49.986;8.672;2023-02-21T22:32:21;425.80;;;198.55;;
27257;SDS011;62045;49.986;8.672;2023-02-21T22:37:21;428.77;;;199.98;;
27257;SDS011;62045;49.986;8.672;2023-02-21T22:42:23;411.98;;;194.05;;
27257;SDS011;62045;49.986;8.672;2023-02-21T22:47:24;424.90;;;193.35;;
27257;SDS011;62045;49.986;8.672;2023-02-21T22:52:25;404.25;;;185.13;;
27257;SDS011;62045;49.986;8.672;2023-02-21T22:57:27;383.38;;;180.75;;
27257;SDS011;62045;49.986;8.672;2023-02-21T23:02:28;385.23;;;177.05;;
27257;SDS011;62045;49.986;8.672;2023-02-21T23:07:28;379.13;;;170.07;;
27257;SDS011;62045;49.986;8.672;2023-02-21T23:12:30;352.48;;;167.27;;
27257;SDS011;62045;49.986;8.672;2023-02-21T23:17:31;355.88;;;167.95;;
27257;SDS011;62045;49.986;8.672;2023-02-21T23:22:32;357.80;;;166.75;;
27257;SDS011;62045;49.986;8.672;2023-02-21T23:27:34;336.02;;;158.85;;
27257;SDS011;62045;49.986;8.672;2023-02-21T23:32:35;333.95;;;155.27;;
27257;SDS011;62045;49.986;8.672;2023-02-21T23:37:36;314.27;;;146.75;;
27257;SDS011;62045;49.986;8.672;2023-02-21T23:42:38;319.08;;;145.98;;
27257;SDS011;62045;49.986;8.672;2023-02-21T23:47:39;297.83;;;142.73;;
27257;SDS011;62045;49.986;8.672;2023-02-21T23:52:40;294.52;;;134.98;;
27257;SDS011;62045;49.986;8.672;2023-02-21T23:57:43;299.58;;;137.32;;
